Marshfield, Missouri
Current Conditions -  °F | °C
As of 5:52 AM on Friday 31 Oct 2014 (Local Time) from KSGF Reporting Station
Overcast Overcast  
Wind Chill:   Ceiling: 6000
Heat Index:   Visibility: 10mi
Dew Point:   Wind: 15mph
Humidity: 71%   Direction: 350°N
Pressure: 30.2"   Gusts: 24mph
Location:  37.34°N, 92.91°W
Report Text: KSGF 311052Z AUTO 35013G21KT 10SM FEW041 OVC060 09/04 A3020 RMK AO2 SLP226 T00890039
Loading
Personal Weather Stations






























Interactive Weather Map
Tropical Storm Tracking
New forecast layout! Learn more

10-Day Weather Forecast

Advertisements
Track Severe Weather on mobile